sensor_id;sensor_type;location;lat;lon;timestamp;temperature;humidity
46231;DHT22;31949;51.404;-0.038;2023-12-04T00:01:30;8.30;99.90
46231;DHT22;31949;51.404;-0.038;2023-12-04T00:03:58;8.30;99.90
46231;DHT22;31949;51.404;-0.038;2023-12-04T00:06:25;8.30;99.90
46231;DHT22;31949;51.404;-0.038;2023-12-04T00:08:52;8.20;99.90
46231;DHT22;31949;51.404;-0.038;2023-12-04T00:11:20;8.20;99.90
46231;DHT22;31949;51.404;-0.038;2023-12-04T00:13:47;8.20;99.90
46231;DHT22;31949;51.404;-0.038;2023-12-04T00:16:14;8.20;99.90
46231;DHT22;31949;51.404;-0.038;2023-12-04T00:18:41;8.10;99.90
46231;DHT22;31949;51.404;-0.038;2023-12-04T00:21:09;8.10;99.90
46231;DHT22;31949;51.404;-0.038;2023-12-04T00:23:36;8.10;99.90
46231;DHT22;31949;51.404;-0.038;2023-12-04T00:26:03;8.10;99.90
46231;DHT22;31949;51.404;-0.038;2023-12-04T00:28:31;8.10;99.90
46231;DHT22;31949;51.404;-0.038;2023-12-04T00:30:58;8.00;99.90
46231;DHT22;31949;51.404;-0.038;2023-12-04T00:33:26;8.00;99.90
46231;DHT22;31949;51.404;-0.038;2023-12-04T00:35:53;8.00;99.90
46231;DHT22;31949;51.404;-0.038;2023-12-04T00:38:20;7.90;99.90
46231;DHT22;31949;51.404;-0.038;2023-12-04T00:40:47;7.90;99.90
46231;DHT22;31949;51.404;-0.038;2023-12-04T00:43:15;7.90;99.90
46231;DHT22;31949;51.404;-0.038;2023-12-04T00:45:42;7.90;99.90
46231;DHT22;31949;51.404;-0.038;2023-12-04T00:48:09;7.90;99.90
46231;DHT22;31949;51.404;-0.038;2023-12-04T00:50:36;7.80;99.90
46231;DHT22;31949;51.404;-0.038;2023-12-04T00:53:04;7.80;99.90
46231;DHT22;31949;51.404;-0.038;2023-12-04T00:55:31;7.80;99.90
46231;DHT22;31949;51.404;-0.038;2023-12-04T00:57:58;7.80;99.90
46231;DHT22;31949;51.404;-0.038;2023-12-04T01:00:26;7.80;99.90
46231;DHT22;31949;51.404;-0.038;2023-12-04T01:02:53;7.80;99.90
46231;DHT22;31949;51.404;-0.038;2023-12-04T01:05:20;7.80;99.90
46231;DHT22;31949;51.404;-0.038;2023-12-04T01:07:47;7.70;99.90
46231;DHT22;31949;51.404;-0.038;2023-12-04T01:10:15;7.70;99.90
46231;DHT22;31949;51.404;-0.038;2023-12-04T01:12:42;7.70;99.90
46231;DHT22;31949;51.404;-0.038;2023-12-04T01:15:09;7.70;99.90
46231;DHT22;31949;51.404;-0.038;2023-12-04T01:17:36;7.60;99.90
46231;DHT22;31949;51.404;-0.038;2023-12-04T01:20:04;7.60;99.90
46231;DHT22;31949;51.404;-0.038;2023-12-04T01:22:31;7.60;99.90
46231;DHT22;31949;51.404;-0.038;2023-12-04T01:25:01;7.60;99.90
46231;DHT22;31949;51.404;-0.038;2023-12-04T01:27:30;7.50;99.90
46231;DHT22;31949;51.404;-0.038;2023-12-04T01:29:57;7.50;99.90
46231;DHT22;31949;51.404;-0.038;2023-12-04T01:32:24;7.50;99.90
46231;DHT22;31949;51.404;-0.038;2023-12-04T01:34:53;7.50;99.90
46231;DHT22;31949;51.404;-0.038;2023-12-04T01:37:20;7.50;99.90
46231;DHT22;31949;51.404;-0.038;2023-12-04T01:39:47;7.50;99.90
46231;DHT22;31949;51.404;-0.038;2023-12-04T01:42:14;7.50;99.90
46231;DHT22;31949;51.404;-0.038;2023-12-04T01:44:42;7.50;99.90
46231;DHT22;31949;51.404;-0.038;2023-12-04T01:47:09;7.40;99.90
46231;DHT22;31949;51.404;-0.038;2023-12-04T01:49:37;7.40;99.90
46231;DHT22;31949;51.404;-0.038;2023-12-04T01:52:05;7.40;99.90
46231;DHT22;31949;51.404;-0.038;2023-12-04T01:54:32;7.40;99.90
46231;DHT22;31949;51.404;-0.038;2023-12-04T01:56:59;7.30;99.90
46231;DHT22;31949;51.404;-0.038;2023-12-04T01:59:28;7.40;99.90
46231;DHT22;31949;51.404;-0.038;2023-12-04T02:01:56;7.30;99.90
46231;DHT22;31949;51.404;-0.038;2023-12-04T02:04:24;7.30;99.90
46231;DHT22;31949;51.404;-0.038;2023-12-04T02:06:52;7.30;99.90
46231;DHT22;31949;51.404;-0.038;2023-12-04T02:09:20;7.30;99.90
46231;DHT22;31949;51.404;-0.038;2023-12-04T02:11:47;7.30;99.90
46231;DHT22;31949;51.404;-0.038;2023-12-04T02:14:14;7.30;99.90
46231;DHT22;31949;51.404;-0.038;2023-12-04T02:16:42;7.30;99.90
46231;DHT22;31949;51.404;-0.038;2023-12-04T02:19:12;7.30;99.90
46231;DHT22;31949;51.404;-0.038;2023-12-04T02:21:41;7.30;99.90
46231;DHT22;31949;51.404;-0.038;2023-12-04T02:24:11;7.30;99.90
46231;DHT22;31949;51.404;-0.038;2023-12-04T02:26:52;7.20;99.90
46231;DHT22;31949;51.404;-0.038;2023-12-04T02:29:29;7.20;99.90
46231;DHT22;31949;51.404;-0.038;2023-12-04T02:31:58;7.20;99.90
46231;DHT22;31949;51.404;-0.038;2023-12-04T02:34:29;7.20;99.90
46231;DHT22;31949;51.404;-0.038;2023-12-04T02:36:58;7.10;99.90
46231;DHT22;31949;51.404;-0.038;2023-12-04T02:39:26;7.10;99.90
46231;DHT22;31949;51.404;-0.038;2023-12-04T02:41:54;7.10;99.90
46231;DHT22;31949;51.404;-0.038;2023-12-04T02:44:21;7.10;99.90
46231;DHT22;31949;51.404;-0.038;2023-12-04T02:46:48;7.10;99.90
46231;DHT22;31949;51.404;-0.038;2023-12-04T02:49:15;7.10;99.90
46231;DHT22;31949;51.404;-0.038;2023-12-04T02:51:43;7.10;99.90
46231;DHT22;31949;51.404;-0.038;2023-12-04T02:54:10;7.10;99.90
46231;DHT22;31949;51.404;-0.038;2023-12-04T02:56:37;7.10;99.90
46231;DHT22;31949;51.404;-0.038;2023-12-04T02:59:04;7.10;99.90
46231;DHT22;31949;51.404;-0.038;2023-12-04T03:01:31;7.10;99.90
46231;DHT22;31949;51.404;-0.038;2023-12-04T03:03:59;7.10;99.90
46231;DHT22;31949;51.404;-0.038;2023-12-04T03:06:26;7.10;99.90
46231;DHT22;31949;51.404;-0.038;2023-12-04T03:08:53;7.10;99.90
46231;DHT22;31949;51.404;-0.038;2023-12-04T03:11:21;7.10;99.90
46231;DHT22;31949;51.404;-0.038;2023-12-04T03:13:48;7.10;99.90
46231;DHT22;31949;51.404;-0.038;2023-12-04T03:16:19;7.20;99.90
46231;DHT22;31949;51.404;-0.038;2023-12-04T03:18:46;7.20;99.90
46231;DHT22;31949;51.404;-0.038;2023-12-04T03:21:13;7.10;99.90
46231;DHT22;31949;51.404;-0.038;2023-12-04T03:23:41;7.10;99.90
46231;DHT22;31949;51.404;-0.038;2023-12-04T03:26:08;7.10;99.90
46231;DHT22;31949;51.404;-0.038;2023-12-04T03:28:36;7.20;99.90
46231;DHT22;31949;51.404;-0.038;2023-12-04T03:31:05;7.20;99.90
46231;DHT22;31949;51.404;-0.038;2023-12-04T03:33:32;7.20;99.90
46231;DHT22;31949;51.404;-0.038;2023-12-04T03:36:00;7.20;99.90
46231;DHT22;31949;51.404;-0.038;2023-12-04T03:38:27;7.20;99.90
46231;DHT22;31949;51.404;-0.038;2023-12-04T03:40:55;7.20;99.90
46231;DHT22;31949;51.404;-0.038;2023-12-04T03:43:22;7.20;99.90
46231;DHT22;31949;51.404;-0.038;2023-12-04T03:45:49;7.20;99.90
46231;DHT22;31949;51.404;-0.038;2023-12-04T03:48:16;7.20;99.90
46231;DHT22;31949;51.404;-0.038;2023-12-04T03:50:44;7.10;99.90
46231;DHT22;31949;51.404;-0.038;2023-12-04T03:53:11;7.10;99.90
46231;DHT22;31949;51.404;-0.038;2023-12-04T03:55:38;7.20;99.90
46231;DHT22;31949;51.404;-0.038;2023-12-04T03:58:05;7.20;99.90
46231;DHT22;31949;51.404;-0.038;2023-12-04T04:00:33;7.20;99.90
46231;DHT22;31949;51.404;-0.038;2023-12-04T04:03:00;7.20;99.90
46231;DHT22;31949;51.404;-0.038;2023-12-04T04:05:28;7.20;99.90
46231;DHT22;31949;51.404;-0.038;2023-12-04T04:07:55;7.20;99.90
46231;DHT22;31949;51.404;-0.038;2023-12-04T04:10:23;7.20;99.90
46231;DHT22;31949;51.404;-0.038;2023-12-04T04:12:51;7.20;99.90
46231;DHT22;31949;51.404;-0.038;2023-12-04T04:15:18;7.20;99.90
46231;DHT22;31949;51.404;-0.038;2023-12-04T04:17:45;7.20;99.90
46231;DHT22;31949;51.404;-0.038;2023-12-04T04:20:13;7.20;99.90
46231;DHT22;31949;51.404;-0.038;2023-12-04T04:22:41;7.20;99.90
46231;DHT22;31949;51.404;-0.038;2023-12-04T04:25:09;7.20;99.90
46231;DHT22;31949;51.404;-0.038;2023-12-04T04:27:36;7.20;99.90
46231;DHT22;31949;51.404;-0.038;2023-12-04T04:30:04;7.20;99.90
46231;DHT22;31949;51.404;-0.038;2023-12-04T04:32:31;7.20;99.90
46231;DHT22;31949;51.404;-0.038;2023-12-04T04:34:59;7.20;99.90
46231;DHT22;31949;51.404;-0.038;2023-12-04T04:37:26;7.20;99.90
46231;DHT22;31949;51.404;-0.038;2023-12-04T04:39:53;7.20;99.90
46231;DHT22;31949;51.404;-0.038;2023-12-04T04:42:22;7.20;99.90
46231;DHT22;31949;51.404;-0.038;2023-12-04T04:44:49;7.20;99.90
46231;DHT22;31949;51.404;-0.038;2023-12-04T04:47:17;7.20;99.90
46231;DHT22;31949;51.404;-0.038;2023-12-04T04:49:44;7.20;99.90
46231;DHT22;31949;51.404;-0.038;2023-12-04T04:52:11;7.20;99.90
46231;DHT22;31949;51.404;-0.038;2023-12-04T04:54:38;7.20;99.90
46231;DHT22;31949;51.404;-0.038;2023-12-04T04:57:06;7.10;99.90
46231;DHT22;31949;51.404;-0.038;2023-12-04T04:59:33;7.10;99.90
46231;DHT22;31949;51.404;-0.038;2023-12-04T05:02:00;7.10;99.90
46231;DHT22;31949;51.404;-0.038;2023-12-04T05:04:28;7.10;99.90
46231;DHT22;31949;51.404;-0.038;2023-12-04T05:06:55;7.10;99.90
46231;DHT22;31949;51.404;-0.038;2023-12-04T05:09:22;7.10;99.90
46231;DHT22;31949;51.404;-0.038;2023-12-04T05:11:49;7.00;99.90
46231;DHT22;31949;51.404;-0.038;2023-12-04T05:14:17;7.00;99.90
46231;DHT22;31949;51.404;-0.038;2023-12-04T05:16:44;7.00;99.90
46231;DHT22;31949;51.404;-0.038;2023-12-04T05:19:11;7.00;99.90
46231;DHT22;31949;51.404;-0.038;2023-12-04T05:21:38;7.00;99.90
46231;DHT22;31949;51.404;-0.038;2023-12-04T05:24:06;7.10;99.90
46231;DHT22;31949;51.404;-0.038;2023-12-04T05:26:33;7.10;99.90
46231;DHT22;31949;51.404;-0.038;2023-12-04T05:29:00;7.10;99.90
46231;DHT22;31949;51.404;-0.038;2023-12-04T05:31:27;7.10;99.90
46231;DHT22;31949;51.404;-0.038;2023-12-04T05:33:54;7.00;99.90
46231;DHT22;31949;51.404;-0.038;2023-12-04T05:36:22;7.10;99.90
46231;DHT22;31949;51.404;-0.038;2023-12-04T05:38:49;7.10;99.90
46231;DHT22;31949;51.404;-0.038;2023-12-04T05:41:16;7.00;99.90
46231;DHT22;31949;51.404;-0.038;2023-12-04T05:43:43;7.00;99.90
46231;DHT22;31949;51.404;-0.038;2023-12-04T05:46:10;7.00;99.90
46231;DHT22;31949;51.404;-0.038;2023-12-04T05:48:37;7.10;99.90
46231;DHT22;31949;51.404;-0.038;2023-12-04T05:51:05;7.10;99.90
46231;DHT22;31949;51.404;-0.038;2023-12-04T05:53:32;7.10;99.90
46231;DHT22;31949;51.404;-0.038;2023-12-04T05:55:59;7.10;99.90
46231;DHT22;31949;51.404;-0.038;2023-12-04T05:58:27;7.10;99.90
46231;DHT22;31949;51.404;-0.038;2023-12-04T06:00:54;7.10;99.90
46231;DHT22;31949;51.404;-0.038;2023-12-04T06:03:21;7.10;99.90
46231;DHT22;31949;51.404;-0.038;2023-12-04T06:05:48;7.10;99.90
46231;DHT22;31949;51.404;-0.038;2023-12-04T06:08:16;7.20;99.90
46231;DHT22;31949;51.404;-0.038;2023-12-04T06:10:43;7.10;99.90
46231;DHT22;31949;51.404;-0.038;2023-12-04T06:13:10;7.10;99.90
46231;DHT22;31949;51.404;-0.038;2023-12-04T06:15:38;7.20;99.90
46231;DHT22;31949;51.404;-0.038;2023-12-04T06:18:05;7.20;99.90
46231;DHT22;31949;51.404;-0.038;2023-12-04T06:20:33;7.20;99.90
46231;DHT22;31949;51.404;-0.038;2023-12-04T06:23:00;7.10;99.90
46231;DHT22;31949;51.404;-0.038;2023-12-04T06:25:27;7.20;99.90
46231;DHT22;31949;51.404;-0.038;2023-12-04T06:27:55;7.10;99.90
46231;DHT22;31949;51.404;-0.038;2023-12-04T06:30:23;7.20;99.90
46231;DHT22;31949;51.404;-0.038;2023-12-04T06:32:50;7.20;99.90
46231;DHT22;31949;51.404;-0.038;2023-12-04T06:35:18;7.20;99.90
46231;DHT22;31949;51.404;-0.038;2023-12-04T06:37:48;7.20;99.90
46231;DHT22;31949;51.404;-0.038;2023-12-04T06:40:16;7.20;99.90
46231;DHT22;31949;51.404;-0.038;2023-12-04T06:42:44;7.20;99.90
46231;DHT22;31949;51.404;-0.038;2023-12-04T06:45:12;7.20;99.90
46231;DHT22;31949;51.404;-0.038;2023-12-04T06:47:40;7.20;99.90
46231;DHT22;31949;51.404;-0.038;2023-12-04T06:50:09;7.10;99.90
46231;DHT22;31949;51.404;-0.038;2023-12-04T06:52:36;7.20;99.90
46231;DHT22;31949;51.404;-0.038;2023-12-04T06:55:04;7.20;99.90
46231;DHT22;31949;51.404;-0.038;2023-12-04T06:57:31;7.20;99.90
46231;DHT22;31949;51.404;-0.038;2023-12-04T06:59:58;7.20;99.90
46231;DHT22;31949;51.404;-0.038;2023-12-04T07:02:26;7.20;99.90
46231;DHT22;31949;51.404;-0.038;2023-12-04T07:04:53;7.20;99.90
46231;DHT22;31949;51.404;-0.038;2023-12-04T07:07:20;7.20;99.90
46231;DHT22;31949;51.404;-0.038;2023-12-04T07:09:48;7.20;99.90
46231;DHT22;31949;51.404;-0.038;2023-12-04T07:12:15;7.20;99.90
46231;DHT22;31949;51.404;-0.038;2023-12-04T07:14:42;7.20;99.90
46231;DHT22;31949;51.404;-0.038;2023-12-04T07:17:09;7.20;99.90
46231;DHT22;31949;51.404;-0.038;2023-12-04T07:19:41;7.20;99.90
46231;DHT22;31949;51.404;-0.038;2023-12-04T07:22:08;7.20;99.90
46231;DHT22;31949;51.404;-0.038;2023-12-04T07:24:36;7.20;99.90
46231;DHT22;31949;51.404;-0.038;2023-12-04T07:27:03;7.20;99.90
46231;DHT22;31949;51.404;-0.038;2023-12-04T07:29:31;7.20;99.90
46231;DHT22;31949;51.404;-0.038;2023-12-04T07:31:58;7.20;99.90
46231;DHT22;31949;51.404;-0.038;2023-12-04T07:34:25;7.20;99.90
46231;DHT22;31949;51.404;-0.038;2023-12-04T07:36:53;7.20;99.90
46231;DHT22;31949;51.404;-0.038;2023-12-04T07:39:21;7.30;99.90
46231;DHT22;31949;51.404;-0.038;2023-12-04T07:41:48;7.20;99.90
46231;DHT22;31949;51.404;-0.038;2023-12-04T07:44:15;7.30;99.90
46231;DHT22;31949;51.404;-0.038;2023-12-04T07:46:42;7.30;99.90
46231;DHT22;31949;51.404;-0.038;2023-12-04T07:49:09;7.30;99.90
46231;DHT22;31949;51.404;-0.038;2023-12-04T07:51:37;7.30;99.90
46231;DHT22;31949;51.404;-0.038;2023-12-04T07:54:04;7.30;99.90
46231;DHT22;31949;51.404;-0.038;2023-12-04T07:56:32;7.30;99.90
46231;DHT22;31949;51.404;-0.038;2023-12-04T07:58:59;7.30;99.90
46231;DHT22;31949;51.404;-0.038;2023-12-04T08:01:26;7.30;99.90
46231;DHT22;31949;51.404;-0.038;2023-12-04T08:03:54;7.30;99.90
46231;DHT22;31949;51.404;-0.038;2023-12-04T08:06:21;7.30;99.90
46231;DHT22;31949;51.404;-0.038;2023-12-04T08:08:48;7.30;99.90
46231;DHT22;31949;51.404;-0.038;2023-12-04T08:11:16;7.30;99.90
46231;DHT22;31949;51.404;-0.038;2023-12-04T08:13:44;7.30;99.90
46231;DHT22;31949;51.404;-0.038;2023-12-04T08:16:15;7.30;99.90
46231;DHT22;31949;51.404;-0.038;2023-12-04T08:18:42;7.30;99.90
46231;DHT22;31949;51.404;-0.038;2023-12-04T08:21:10;7.30;99.90
46231;DHT22;31949;51.404;-0.038;2023-12-04T08:23:38;7.30;99.90
46231;DHT22;31949;51.404;-0.038;2023-12-04T08:26:06;7.40;99.90
46231;DHT22;31949;51.404;-0.038;2023-12-04T08:28:33;7.40;99.90
46231;DHT22;31949;51.404;-0.038;2023-12-04T08:31:03;7.40;99.90
46231;DHT22;31949;51.404;-0.038;2023-12-04T08:33:31;7.40;99.90
46231;DHT22;31949;51.404;-0.038;2023-12-04T08:35:58;7.40;99.90
46231;DHT22;31949;51.404;-0.038;2023-12-04T08:38:26;7.40;99.90
46231;DHT22;31949;51.404;-0.038;2023-12-04T08:40:53;7.50;99.90
46231;DHT22;31949;51.404;-0.038;2023-12-04T08:43:20;7.40;99.90
46231;DHT22;31949;51.404;-0.038;2023-12-04T08:45:48;7.50;99.90
46231;DHT22;31949;51.404;-0.038;2023-12-04T08:48:16;7.50;99.90
46231;DHT22;31949;51.404;-0.038;2023-12-04T08:50:43;7.50;99.90
46231;DHT22;31949;51.404;-0.038;2023-12-04T08:53:10;7.60;99.90
46231;DHT22;31949;51.404;-0.038;2023-12-04T08:55:37;7.60;99.90
46231;DHT22;31949;51.404;-0.038;2023-12-04T08:58:05;7.50;99.90
46231;DHT22;31949;51.404;-0.038;2023-12-04T09:00:32;7.60;99.90
46231;DHT22;31949;51.404;-0.038;2023-12-04T09:03:00;7.60;99.90
46231;DHT22;31949;51.404;-0.038;2023-12-04T09:05:36;7.60;99.90
46231;DHT22;31949;51.404;-0.038;2023-12-04T09:08:05;7.60;99.90
46231;DHT22;31949;51.404;-0.038;2023-12-04T09:10:35;7.60;99.90
46231;DHT22;31949;51.404;-0.038;2023-12-04T09:13:22;7.60;99.90
46231;DHT22;31949;51.404;-0.038;2023-12-04T09:15:50;7.70;99.90
46231;DHT22;31949;51.404;-0.038;2023-12-04T09:18:17;7.70;99.90
46231;DHT22;31949;51.404;-0.038;2023-12-04T09:20:46;7.70;99.90
46231;DHT22;31949;51.404;-0.038;2023-12-04T09:23:13;7.70;99.90
46231;DHT22;31949;51.404;-0.038;2023-12-04T09:25:41;7.70;99.90
46231;DHT22;31949;51.404;-0.038;2023-12-04T09:28:08;7.70;99.90
46231;DHT22;31949;51.404;-0.038;2023-12-04T09:30:36;7.80;99.90
46231;DHT22;31949;51.404;-0.038;2023-12-04T09:33:04;7.80;99.90
46231;DHT22;31949;51.404;-0.038;2023-12-04T09:35:33;7.90;99.90
46231;DHT22;31949;51.404;-0.038;2023-12-04T09:38:01;7.90;99.90
46231;DHT22;31949;51.404;-0.038;2023-12-04T09:40:28;7.90;99.90
46231;DHT22;31949;51.404;-0.038;2023-12-04T09:42:55;7.90;99.90
46231;DHT22;31949;51.404;-0.038;2023-12-04T09:45:24;7.90;99.90
46231;DHT22;31949;51.404;-0.038;2023-12-04T09:47:52;8.00;99.90
46231;DHT22;31949;51.404;-0.038;2023-12-04T09:50:20;8.00;99.90
46231;DHT22;31949;51.404;-0.038;2023-12-04T09:52:50;8.00;99.90
46231;DHT22;31949;51.404;-0.038;2023-12-04T09:55:17;8.00;99.90
46231;DHT22;31949;51.404;-0.038;2023-12-04T09:57:45;8.00;99.90
46231;DHT22;31949;51.404;-0.038;2023-12-04T10:00:13;8.00;99.90
46231;DHT22;31949;51.404;-0.038;2023-12-04T10:02:42;8.00;99.90
46231;DHT22;31949;51.404;-0.038;2023-12-04T10:05:10;8.00;99.90
46231;DHT22;31949;51.404;-0.038;2023-12-04T10:07:37;8.10;99.90
46231;DHT22;31949;51.404;-0.038;2023-12-04T10:10:07;8.10;99.90
46231;DHT22;31949;51.404;-0.038;2023-12-04T10:12:36;8.10;99.90
46231;DHT22;31949;51.404;-0.038;2023-12-04T10:17:41;8.10;99.90
46231;DHT22;31949;51.404;-0.038;2023-12-04T10:20:14;8.10;99.90
46231;DHT22;31949;51.404;-0.038;2023-12-04T10:23:02;8.10;99.90
46231;DHT22;31949;51.404;-0.038;2023-12-04T10:25:30;8.10;99.90
46231;DHT22;31949;51.404;-0.038;2023-12-04T10:28:09;8.10;99.90
46231;DHT22;31949;51.404;-0.038;2023-12-04T10:30:37;8.10;99.90
46231;DHT22;31949;51.404;-0.038;2023-12-04T10:33:07;8.10;99.90
46231;DHT22;31949;51.404;-0.038;2023-12-04T10:35:36;8.10;99.90
46231;DHT22;31949;51.404;-0.038;2023-12-04T10:38:05;8.10;99.90
46231;DHT22;31949;51.404;-0.038;2023-12-04T10:40:34;8.10;99.90
46231;DHT22;31949;51.404;-0.038;2023-12-04T10:45:40;8.10;99.90
46231;DHT22;31949;51.404;-0.038;2023-12-04T10:48:09;8.10;99.90
46231;DHT22;31949;51.404;-0.038;2023-12-04T10:50:39;8.10;99.90
46231;DHT22;31949;51.404;-0.038;2023-12-04T10:53:08;8.10;99.90
46231;DHT22;31949;51.404;-0.038;2023-12-04T10:55:36;8.10;99.90
46231;DHT22;31949;51.404;-0.038;2023-12-04T10:58:08;8.10;99.90
46231;DHT22;31949;51.404;-0.038;2023-12-04T11:00:40;8.20;99.90
46231;DHT22;31949;51.404;-0.038;2023-12-04T11:03:09;8.20;99.90
46231;DHT22;31949;51.404;-0.038;2023-12-04T11:05:39;8.20;99.90
46231;DHT22;31949;51.404;-0.038;2023-12-04T11:08:09;8.30;99.90
46231;DHT22;31949;51.404;-0.038;2023-12-04T11:10:55;8.30;99.90
46231;DHT22;31949;51.404;-0.038;2023-12-04T11:13:35;8.30;99.90
46231;DHT22;31949;51.404;-0.038;2023-12-04T11:16:15;8.30;99.90
46231;DHT22;31949;51.404;-0.038;2023-12-04T11:18:51;8.40;99.90
46231;DHT22;31949;51.404;-0.038;2023-12-04T11:21:20;8.40;99.90
46231;DHT22;31949;51.404;-0.038;2023-12-04T11:23:48;8.40;99.90
46231;DHT22;31949;51.404;-0.038;2023-12-04T11:26:17;8.40;99.90
46231;DHT22;31949;51.404;-0.038;2023-12-04T11:28:45;8.50;99.90
46231;DHT22;31949;51.404;-0.038;2023-12-04T11:31:12;8.50;99.90
46231;DHT22;31949;51.404;-0.038;2023-12-04T11:33:40;8.50;99.90
46231;DHT22;31949;51.404;-0.038;2023-12-04T11:36:12;8.60;99.90
46231;DHT22;31949;51.404;-0.038;2023-12-04T11:38:49;8.50;99.90
46231;DHT22;31949;51.404;-0.038;2023-12-04T11:41:18;8.60;99.90
46231;DHT22;31949;51.404;-0.038;2023-12-04T11:43:52;8.60;99.90
46231;DHT22;31949;51.404;-0.038;2023-12-04T11:46:23;8.60;99.90
46231;DHT22;31949;51.404;-0.038;2023-12-04T11:48:55;8.60;99.90
46231;DHT22;31949;51.404;-0.038;2023-12-04T11:54:09;8.60;99.90
46231;DHT22;31949;51.404;-0.038;2023-12-04T11:56:37;8.60;99.90
46231;DHT22;31949;51.404;-0.038;2023-12-04T11:59:06;8.60;99.90
46231;DHT22;31949;51.404;-0.038;2023-12-04T12:01:36;8.60;99.90
46231;DHT22;31949;51.404;-0.038;2023-12-04T12:04:07;8.70;99.90
46231;DHT22;31949;51.404;-0.038;2023-12-04T12:06:35;8.60;99.90
46231;DHT22;31949;51.404;-0.038;2023-12-04T12:09:03;8.70;99.90
46231;DHT22;31949;51.404;-0.038;2023-12-04T12:11:31;8.70;99.90
46231;DHT22;31949;51.404;-0.038;2023-12-04T12:13:59;8.70;99.90
46231;DHT22;31949;51.404;-0.038;2023-12-04T12:16:27;8.70;99.90
46231;DHT22;31949;51.404;-0.038;2023-12-04T12:18:54;8.70;99.90
46231;DHT22;31949;51.404;-0.038;2023-12-04T12:21:22;8.70;99.90
46231;DHT22;31949;51.404;-0.038;2023-12-04T12:23:49;8.70;99.90
46231;DHT22;31949;51.404;-0.038;2023-12-04T12:26:17;8.70;99.90
46231;DHT22;31949;51.404;-0.038;2023-12-04T12:28:45;8.70;99.90
46231;DHT22;31949;51.404;-0.038;2023-12-04T12:31:12;8.70;99.90
46231;DHT22;31949;51.404;-0.038;2023-12-04T12:33:39;8.70;99.90
46231;DHT22;31949;51.404;-0.038;2023-12-04T12:36:08;8.70;99.90
46231;DHT22;31949;51.404;-0.038;2023-12-04T12:38:37;8.70;99.90
46231;DHT22;31949;51.404;-0.038;2023-12-04T12:41:07;8.70;99.90
46231;DHT22;31949;51.404;-0.038;2023-12-04T12:43:37;8.70;99.90
46231;DHT22;31949;51.404;-0.038;2023-12-04T12:46:05;8.70;99.90
46231;DHT22;31949;51.404;-0.038;2023-12-04T12:48:32;8.60;99.90
46231;DHT22;31949;51.404;-0.038;2023-12-04T12:51:02;8.60;99.90
46231;DHT22;31949;51.404;-0.038;2023-12-04T12:53:32;8.70;99.90
46231;DHT22;31949;51.404;-0.038;2023-12-04T12:56:00;8.60;99.90
46231;DHT22;31949;51.404;-0.038;2023-12-04T12:58:35;8.70;99.90
46231;DHT22;31949;51.404;-0.038;2023-12-04T13:01:02;8.60;99.90
46231;DHT22;31949;51.404;-0.038;2023-12-04T13:03:30;8.60;99.90
46231;DHT22;31949;51.404;-0.038;2023-12-04T13:05:59;8.60;99.90
46231;DHT22;31949;51.404;-0.038;2023-12-04T13:08:26;8.70;99.90
46231;DHT22;31949;51.404;-0.038;2023-12-04T13:10:54;8.60;99.90
46231;DHT22;31949;51.404;-0.038;2023-12-04T13:13:21;8.60;99.90
46231;DHT22;31949;51.404;-0.038;2023-12-04T13:15:50;8.60;99.90
46231;DHT22;31949;51.404;-0.038;2023-12-04T13:18:17;8.60;99.90
46231;DHT22;31949;51.404;-0.038;2023-12-04T13:20:44;8.60;99.90
46231;DHT22;31949;51.404;-0.038;2023-12-04T13:23:12;8.60;99.90
46231;DHT22;31949;51.404;-0.038;2023-12-04T13:25:39;8.60;99.90
46231;DHT22;31949;51.404;-0.038;2023-12-04T13:28:07;8.60;99.90
46231;DHT22;31949;51.404;-0.038;2023-12-04T13:30:37;8.60;99.90
46231;DHT22;31949;51.404;-0.038;2023-12-04T13:33:06;8.60;99.90
46231;DHT22;31949;51.404;-0.038;2023-12-04T13:35:33;8.60;99.90
46231;DHT22;31949;51.404;-0.038;2023-12-04T13:38:00;8.60;99.90
46231;DHT22;31949;51.404;-0.038;2023-12-04T13:40:27;8.60;99.90
46231;DHT22;31949;51.404;-0.038;2023-12-04T13:42:59;8.70;99.90
46231;DHT22;31949;51.404;-0.038;2023-12-04T13:45:45;8.60;99.90
46231;DHT22;31949;51.404;-0.038;2023-12-04T13:48:12;8.60;99.90
46231;DHT22;31949;51.404;-0.038;2023-12-04T13:50:43;8.60;99.90
46231;DHT22;31949;51.404;-0.038;2023-12-04T13:53:10;8.60;99.90
46231;DHT22;31949;51.404;-0.038;2023-12-04T13:55:37;8.60;99.90
46231;DHT22;31949;51.404;-0.038;2023-12-04T13:58:16;8.60;99.90
46231;DHT22;31949;51.404;-0.038;2023-12-04T14:01:03;8.70;99.90
46231;DHT22;31949;51.404;-0.038;2023-12-04T14:03:43;8.70;99.90
46231;DHT22;31949;51.404;-0.038;2023-12-04T14:06:10;8.70;99.90
46231;DHT22;31949;51.404;-0.038;2023-12-04T14:08:38;8.60;99.90
46231;DHT22;31949;51.404;-0.038;2023-12-04T14:11:06;8.60;99.90
46231;DHT22;31949;51.404;-0.038;2023-12-04T14:13:34;8.60;99.90
46231;DHT22;31949;51.404;-0.038;2023-12-04T14:16:02;8.60;99.90
46231;DHT22;31949;51.404;-0.038;2023-12-04T14:18:30;8.60;99.90
46231;DHT22;31949;51.404;-0.038;2023-12-04T14:20:57;8.60;99.90
46231;DHT22;31949;51.404;-0.038;2023-12-04T14:23:25;8.60;99.90
46231;DHT22;31949;51.404;-0.038;2023-12-04T14:25:52;8.60;99.90
46231;DHT22;31949;51.404;-0.038;2023-12-04T14:28:19;8.60;99.90
46231;DHT22;31949;51.404;-0.038;2023-12-04T14:30:55;8.60;99.90
46231;DHT22;31949;51.404;-0.038;2023-12-04T14:33:23;8.60;99.90
46231;DHT22;31949;51.404;-0.038;2023-12-04T14:35:50;8.50;99.90
46231;DHT22;31949;51.404;-0.038;2023-12-04T14:38:17;8.50;99.90
46231;DHT22;31949;51.404;-0.038;2023-12-04T14:40:45;8.40;99.90
46231;DHT22;31949;51.404;-0.038;2023-12-04T14:43:12;8.40;99.90
46231;DHT22;31949;51.404;-0.038;2023-12-04T14:45:39;8.40;99.90
46231;DHT22;31949;51.404;-0.038;2023-12-04T14:48:07;8.40;99.90
46231;DHT22;31949;51.404;-0.038;2023-12-04T14:50:34;8.40;99.90
46231;DHT22;31949;51.404;-0.038;2023-12-04T14:53:03;8.40;99.90
46231;DHT22;31949;51.404;-0.038;2023-12-04T14:55:46;8.40;99.90
46231;DHT22;31949;51.404;-0.038;2023-12-04T14:58:32;8.30;99.90
46231;DHT22;31949;51.404;-0.038;2023-12-04T15:01:12;8.30;99.90
46231;DHT22;31949;51.404;-0.038;2023-12-04T15:04:05;8.30;99.90
46231;DHT22;31949;51.404;-0.038;2023-12-04T15:06:52;8.30;99.90
46231;DHT22;31949;51.404;-0.038;2023-12-04T15:09:23;8.20;99.90
46231;DHT22;31949;51.404;-0.038;2023-12-04T15:12:08;8.20;99.90
46231;DHT22;31949;51.404;-0.038;2023-12-04T15:14:42;8.20;99.90
46231;DHT22;31949;51.404;-0.038;2023-12-04T15:17:27;8.10;99.90
46231;DHT22;31949;51.404;-0.038;2023-12-04T15:19:56;8.20;99.90
46231;DHT22;31949;51.404;-0.038;2023-12-04T15:22:26;8.10;99.90
46231;DHT22;31949;51.404;-0.038;2023-12-04T15:24:53;8.10;99.90
46231;DHT22;31949;51.404;-0.038;2023-12-04T15:27:20;8.10;99.90
46231;DHT22;31949;51.404;-0.038;2023-12-04T15:29:48;8.10;99.90
46231;DHT22;31949;51.404;-0.038;2023-12-04T15:32:15;8.10;99.90
46231;DHT22;31949;51.404;-0.038;2023-12-04T15:34:42;8.10;99.90
46231;DHT22;31949;51.404;-0.038;2023-12-04T15:37:10;8.10;99.90
46231;DHT22;31949;51.404;-0.038;2023-12-04T15:39:37;8.10;99.90
46231;DHT22;31949;51.404;-0.038;2023-12-04T15:42:05;8.00;99.90
46231;DHT22;31949;51.404;-0.038;2023-12-04T15:44:34;8.10;99.90
46231;DHT22;31949;51.404;-0.038;2023-12-04T15:47:01;8.00;99.90